sensor_id;sensor_type;location;lat;lon;timestamp;P1;durP1;ratioP1;P2;durP2;ratioP2
56043;SDS011;41912;51.022;3.664;2024-01-11T00:00:44;48.30;;;18.70;;
56043;SDS011;41912;51.022;3.664;2024-01-11T00:03:09;42.33;;;17.77;;
56043;SDS011;41912;51.022;3.664;2024-01-11T00:05:35;40.90;;;17.88;;
56043;SDS011;41912;51.022;3.664;2024-01-11T00:08:01;37.38;;;17.55;;
56043;SDS011;41912;51.022;3.664;2024-01-11T00:10:27;41.38;;;17.90;;
56043;SDS011;41912;51.022;3.664;2024-01-11T00:12:53;42.53;;;17.83;;
56043;SDS011;41912;51.022;3.664;2024-01-11T00:15:18;40.13;;;17.88;;
56043;SDS011;41912;51.022;3.664;2024-01-11T00:34:28;41.13;;;17.70;;
56043;SDS011;41912;51.022;3.664;2024-01-11T00:36:54;43.22;;;18.02;;
56043;SDS011;41912;51.022;3.664;2024-01-11T00:39:20;45.45;;;17.40;;
56043;SDS011;41912;51.022;3.664;2024-01-11T00:41:45;41.67;;;17.88;;
56043;SDS011;41912;51.022;3.664;2024-01-11T00:44:11;39.03;;;16.08;;
56043;SDS011;41912;51.022;3.664;2024-01-11T00:46:36;43.88;;;17.63;;
56043;SDS011;41912;51.022;3.664;2024-01-11T00:49:03;42.20;;;18.05;;
56043;SDS011;41912;51.022;3.664;2024-01-11T00:51:29;42.35;;;17.75;;
56043;SDS011;41912;51.022;3.664;2024-01-11T00:57:16;37.75;;;16.77;;
56043;SDS011;41912;51.022;3.664;2024-01-11T00:59:42;39.80;;;18.02;;
56043;SDS011;41912;51.022;3.664;2024-01-11T01:02:08;42.35;;;17.98;;
56043;SDS011;41912;51.022;3.664;2024-01-11T01:04:36;38.30;;;16.85;;
56043;SDS011;41912;51.022;3.664;2024-01-11T01:07:03;41.58;;;17.50;;
56043;SDS011;41912;51.022;3.664;2024-01-11T01:09:29;40.65;;;17.88;;
56043;SDS011;41912;51.022;3.664;2024-01-11T01:11:55;42.40;;;18.70;;
56043;SDS011;41912;51.022;3.664;2024-01-11T01:14:21;42.35;;;17.65;;
56043;SDS011;41912;51.022;3.664;2024-01-11T01:16:46;38.17;;;16.30;;
56043;SDS011;41912;51.022;3.664;2024-01-11T01:19:12;38.70;;;17.38;;
56043;SDS011;41912;51.022;3.664;2024-01-11T01:21:38;39.95;;;16.35;;
56043;SDS011;41912;51.022;3.664;2024-01-11T01:24:03;37.17;;;16.80;;
56043;SDS011;41912;51.022;3.664;2024-01-11T01:26:29;42.30;;;18.33;;
56043;SDS011;41912;51.022;3.664;2024-01-11T01:28:55;34.60;;;16.73;;
56043;SDS011;41912;51.022;3.664;2024-01-11T01:31:21;43.50;;;17.48;;
56043;SDS011;41912;51.022;3.664;2024-01-11T01:33:46;40.85;;;17.08;;
56043;SDS011;41912;51.022;3.664;2024-01-11T01:36:12;42.40;;;17.27;;
56043;SDS011;41912;51.022;3.664;2024-01-11T01:38:38;41.08;;;17.10;;
56043;SDS011;41912;51.022;3.664;2024-01-11T01:41:04;34.50;;;16.90;;
56043;SDS011;41912;51.022;3.664;2024-01-11T01:43:29;47.88;;;17.83;;
56043;SDS011;41912;51.022;3.664;2024-01-11T01:45:55;38.28;;;17.50;;
56043;SDS011;41912;51.022;3.664;2024-01-11T01:48:21;36.70;;;16.23;;
56043;SDS011;41912;51.022;3.664;2024-01-11T01:50:47;41.63;;;17.10;;
56043;SDS011;41912;51.022;3.664;2024-01-11T01:53:22;39.25;;;16.58;;
56043;SDS011;41912;51.022;3.664;2024-01-11T01:55:49;37.67;;;16.95;;
56043;SDS011;41912;51.022;3.664;2024-01-11T01:58:16;37.42;;;17.35;;
56043;SDS011;41912;51.022;3.664;2024-01-11T02:00:44;45.53;;;18.08;;
56043;SDS011;41912;51.022;3.664;2024-01-11T02:03:10;34.85;;;16.52;;
56043;SDS011;41912;51.022;3.664;2024-01-11T02:05:37;36.55;;;16.98;;
56043;SDS011;41912;51.022;3.664;2024-01-11T02:08:03;39.38;;;16.67;;
56043;SDS011;41912;51.022;3.664;2024-01-11T02:10:33;37.65;;;15.98;;
56043;SDS011;41912;51.022;3.664;2024-01-11T02:13:00;46.08;;;17.58;;
56043;SDS011;41912;51.022;3.664;2024-01-11T02:15:26;40.95;;;16.17;;
56043;SDS011;41912;51.022;3.664;2024-01-11T02:17:52;34.10;;;17.02;;
56043;SDS011;41912;51.022;3.664;2024-01-11T02:20:17;38.40;;;16.70;;
56043;SDS011;41912;51.022;3.664;2024-01-11T02:22:47;37.25;;;16.42;;
56043;SDS011;41912;51.022;3.664;2024-01-11T02:25:18;40.33;;;16.55;;
56043;SDS011;41912;51.022;3.664;2024-01-11T02:27:49;37.40;;;16.67;;
56043;SDS011;41912;51.022;3.664;2024-01-11T02:30:16;39.65;;;17.30;;
56043;SDS011;41912;51.022;3.664;2024-01-11T02:32:45;38.03;;;17.05;;
56043;SDS011;41912;51.022;3.664;2024-01-11T02:35:14;35.35;;;16.15;;
56043;SDS011;41912;51.022;3.664;2024-01-11T02:37:40;35.88;;;16.52;;
56043;SDS011;41912;51.022;3.664;2024-01-11T02:40:07;35.22;;;15.20;;
56043;SDS011;41912;51.022;3.664;2024-01-11T02:42:34;38.00;;;16.95;;
56043;SDS011;41912;51.022;3.664;2024-01-11T02:45:00;39.95;;;16.95;;
56043;SDS011;41912;51.022;3.664;2024-01-11T02:47:27;38.60;;;15.60;;
56043;SDS011;41912;51.022;3.664;2024-01-11T02:49:53;34.67;;;16.33;;
56043;SDS011;41912;51.022;3.664;2024-01-11T02:52:18;38.80;;;17.15;;
56043;SDS011;41912;51.022;3.664;2024-01-11T02:54:44;34.95;;;15.90;;
56043;SDS011;41912;51.022;3.664;2024-01-11T02:57:09;36.17;;;16.63;;
56043;SDS011;41912;51.022;3.664;2024-01-11T02:59:35;42.42;;;16.88;;
56043;SDS011;41912;51.022;3.664;2024-01-11T03:02:01;35.35;;;15.70;;
56043;SDS011;41912;51.022;3.664;2024-01-11T03:04:27;33.90;;;17.17;;
56043;SDS011;41912;51.022;3.664;2024-01-11T03:06:52;39.42;;;16.48;;
56043;SDS011;41912;51.022;3.664;2024-01-11T03:09:18;40.35;;;16.30;;
56043;SDS011;41912;51.022;3.664;2024-01-11T03:11:44;34.25;;;15.05;;
56043;SDS011;41912;51.022;3.664;2024-01-11T03:14:09;36.33;;;17.45;;
56043;SDS011;41912;51.022;3.664;2024-01-11T03:16:35;30.77;;;16.30;;
56043;SDS011;41912;51.022;3.664;2024-01-11T03:19:00;33.60;;;15.85;;
56043;SDS011;41912;51.022;3.664;2024-01-11T03:21:27;39.88;;;16.58;;
56043;SDS011;41912;51.022;3.664;2024-01-11T03:23:52;39.58;;;16.90;;
56043;SDS011;41912;51.022;3.664;2024-01-11T03:26:18;38.70;;;17.13;;
56043;SDS011;41912;51.022;3.664;2024-01-11T03:28:47;36.25;;;15.70;;
56043;SDS011;41912;51.022;3.664;2024-01-11T03:31:13;34.78;;;16.35;;
56043;SDS011;41912;51.022;3.664;2024-01-11T03:33:38;35.28;;;16.38;;
56043;SDS011;41912;51.022;3.664;2024-01-11T03:36:10;37.40;;;15.65;;
56043;SDS011;41912;51.022;3.664;2024-01-11T03:41:07;35.80;;;15.95;;
56043;SDS011;41912;51.022;3.664;2024-01-11T03:43:34;37.65;;;15.88;;
56043;SDS011;41912;51.022;3.664;2024-01-11T03:46:00;37.45;;;16.10;;
56043;SDS011;41912;51.022;3.664;2024-01-11T03:48:25;37.42;;;16.38;;
56043;SDS011;41912;51.022;3.664;2024-01-11T03:50:51;33.35;;;16.33;;
56043;SDS011;41912;51.022;3.664;2024-01-11T03:53:17;33.15;;;16.05;;
56043;SDS011;41912;51.022;3.664;2024-01-11T03:55:42;38.03;;;16.00;;
56043;SDS011;41912;51.022;3.664;2024-01-11T03:58:08;36.40;;;17.40;;
56043;SDS011;41912;51.022;3.664;2024-01-11T04:00:33;39.83;;;17.27;;
56043;SDS011;41912;51.022;3.664;2024-01-11T04:02:59;35.58;;;16.52;;
56043;SDS011;41912;51.022;3.664;2024-01-11T04:05:26;43.75;;;17.05;;
56043;SDS011;41912;51.022;3.664;2024-01-11T04:07:53;34.42;;;16.08;;
56043;SDS011;41912;51.022;3.664;2024-01-11T04:10:19;37.78;;;15.57;;
56043;SDS011;41912;51.022;3.664;2024-01-11T04:12:44;33.10;;;15.85;;
56043;SDS011;41912;51.022;3.664;2024-01-11T04:15:13;39.38;;;16.80;;
56043;SDS011;41912;51.022;3.664;2024-01-11T04:17:39;40.00;;;16.33;;
56043;SDS011;41912;51.022;3.664;2024-01-11T04:20:05;38.97;;;16.20;;
56043;SDS011;41912;51.022;3.664;2024-01-11T04:22:31;39.92;;;17.60;;
56043;SDS011;41912;51.022;3.664;2024-01-11T04:24:57;37.60;;;17.13;;
56043;SDS011;41912;51.022;3.664;2024-01-11T04:27:23;46.13;;;17.20;;
56043;SDS011;41912;51.022;3.664;2024-01-11T04:29:48;40.33;;;16.85;;
56043;SDS011;41912;51.022;3.664;2024-01-11T04:32:14;39.53;;;16.70;;
56043;SDS011;41912;51.022;3.664;2024-01-11T04:34:39;38.92;;;17.00;;
56043;SDS011;41912;51.022;3.664;2024-01-11T04:37:05;39.40;;;16.85;;
56043;SDS011;41912;51.022;3.664;2024-01-11T04:39:31;37.50;;;17.10;;
56043;SDS011;41912;51.022;3.664;2024-01-11T04:41:57;35.38;;;16.98;;
56043;SDS011;41912;51.022;3.664;2024-01-11T04:44:22;40.50;;;17.67;;
56043;SDS011;41912;51.022;3.664;2024-01-11T04:46:48;36.85;;;16.65;;
56043;SDS011;41912;51.022;3.664;2024-01-11T04:49:13;38.53;;;17.27;;
56043;SDS011;41912;51.022;3.664;2024-01-11T04:51:39;37.05;;;18.58;;
56043;SDS011;41912;51.022;3.664;2024-01-11T04:54:05;37.13;;;17.10;;
56043;SDS011;41912;51.022;3.664;2024-01-11T04:56:30;34.63;;;16.95;;
56043;SDS011;41912;51.022;3.664;2024-01-11T04:58:56;38.58;;;16.85;;
56043;SDS011;41912;51.022;3.664;2024-01-11T05:01:22;38.03;;;17.08;;
56043;SDS011;41912;51.022;3.664;2024-01-11T05:03:48;38.13;;;17.40;;
56043;SDS011;41912;51.022;3.664;2024-01-11T05:06:15;36.53;;;17.17;;
56043;SDS011;41912;51.022;3.664;2024-01-11T05:08:41;37.72;;;18.17;;
56043;SDS011;41912;51.022;3.664;2024-01-11T05:11:08;37.13;;;16.63;;
56043;SDS011;41912;51.022;3.664;2024-01-11T05:13:40;38.65;;;17.38;;
56043;SDS011;41912;51.022;3.664;2024-01-11T05:16:06;39.70;;;17.48;;
56043;SDS011;41912;51.022;3.664;2024-01-11T05:18:31;42.28;;;16.92;;
56043;SDS011;41912;51.022;3.664;2024-01-11T05:20:57;36.25;;;16.23;;
56043;SDS011;41912;51.022;3.664;2024-01-11T05:23:22;38.97;;;17.58;;
56043;SDS011;41912;51.022;3.664;2024-01-11T05:25:48;34.90;;;15.48;;
56043;SDS011;41912;51.022;3.664;2024-01-11T05:28:14;37.42;;;16.88;;
56043;SDS011;41912;51.022;3.664;2024-01-11T05:30:39;38.58;;;16.55;;
56043;SDS011;41912;51.022;3.664;2024-01-11T05:33:05;39.35;;;16.88;;
56043;SDS011;41912;51.022;3.664;2024-01-11T05:35:30;40.33;;;18.27;;
56043;SDS011;41912;51.022;3.664;2024-01-11T05:37:56;38.10;;;16.25;;
56043;SDS011;41912;51.022;3.664;2024-01-11T05:40:21;42.03;;;17.10;;
56043;SDS011;41912;51.022;3.664;2024-01-11T05:42:47;43.20;;;17.23;;
56043;SDS011;41912;51.022;3.664;2024-01-11T05:45:13;36.88;;;17.35;;
56043;SDS011;41912;51.022;3.664;2024-01-11T05:47:41;39.10;;;17.92;;
56043;SDS011;41912;51.022;3.664;2024-01-11T05:50:08;40.30;;;17.80;;
56043;SDS011;41912;51.022;3.664;2024-01-11T05:52:33;42.17;;;17.65;;
56043;SDS011;41912;51.022;3.664;2024-01-11T05:54:59;37.42;;;17.00;;
56043;SDS011;41912;51.022;3.664;2024-01-11T05:57:25;38.47;;;16.70;;
56043;SDS011;41912;51.022;3.664;2024-01-11T05:59:50;47.63;;;19.10;;
56043;SDS011;41912;51.022;3.664;2024-01-11T06:02:16;37.50;;;16.40;;
56043;SDS011;41912;51.022;3.664;2024-01-11T06:04:41;39.10;;;17.45;;
56043;SDS011;41912;51.022;3.664;2024-01-11T06:07:07;37.00;;;18.23;;
56043;SDS011;41912;51.022;3.664;2024-01-11T06:09:33;36.72;;;16.75;;
56043;SDS011;41912;51.022;3.664;2024-01-11T06:11:58;49.63;;;18.23;;
56043;SDS011;41912;51.022;3.664;2024-01-11T06:14:24;40.65;;;16.38;;
56043;SDS011;41912;51.022;3.664;2024-01-11T06:16:50;43.25;;;17.95;;
56043;SDS011;41912;51.022;3.664;2024-01-11T06:19:15;42.90;;;18.20;;
56043;SDS011;41912;51.022;3.664;2024-01-11T06:21:41;43.22;;;17.50;;
56043;SDS011;41912;51.022;3.664;2024-01-11T06:24:06;39.63;;;18.50;;
56043;SDS011;41912;51.022;3.664;2024-01-11T06:26:32;38.72;;;16.85;;
56043;SDS011;41912;51.022;3.664;2024-01-11T06:28:58;41.97;;;18.10;;
56043;SDS011;41912;51.022;3.664;2024-01-11T06:31:23;41.28;;;18.23;;
56043;SDS011;41912;51.022;3.664;2024-01-11T06:33:49;35.00;;;17.52;;
56043;SDS011;41912;51.022;3.664;2024-01-11T06:36:15;44.65;;;17.77;;
56043;SDS011;41912;51.022;3.664;2024-01-11T06:38:40;43.08;;;18.88;;
56043;SDS011;41912;51.022;3.664;2024-01-11T06:41:06;42.17;;;17.35;;
56043;SDS011;41912;51.022;3.664;2024-01-11T06:43:31;45.40;;;19.73;;
56043;SDS011;41912;51.022;3.664;2024-01-11T06:46:01;42.42;;;18.08;;
56043;SDS011;41912;51.022;3.664;2024-01-11T06:48:31;39.63;;;18.35;;
56043;SDS011;41912;51.022;3.664;2024-01-11T06:50:57;46.55;;;18.77;;
56043;SDS011;41912;51.022;3.664;2024-01-11T06:53:22;45.35;;;17.73;;
56043;SDS011;41912;51.022;3.664;2024-01-11T06:55:48;41.90;;;19.02;;
56043;SDS011;41912;51.022;3.664;2024-01-11T06:58:15;40.78;;;17.80;;
56043;SDS011;41912;51.022;3.664;2024-01-11T07:00:41;42.72;;;19.10;;
56043;SDS011;41912;51.022;3.664;2024-01-11T07:03:10;37.95;;;18.58;;
56043;SDS011;41912;51.022;3.664;2024-01-11T07:05:36;49.13;;;19.45;;
56043;SDS011;41912;51.022;3.664;2024-01-11T07:08:02;45.50;;;19.40;;
56043;SDS011;41912;51.022;3.664;2024-01-11T07:10:28;40.83;;;18.00;;
56043;SDS011;41912;51.022;3.664;2024-01-11T07:12:53;46.38;;;18.95;;
56043;SDS011;41912;51.022;3.664;2024-01-11T07:15:19;35.30;;;17.42;;
56043;SDS011;41912;51.022;3.664;2024-01-11T07:17:44;45.55;;;18.27;;
56043;SDS011;41912;51.022;3.664;2024-01-11T07:20:10;47.40;;;19.50;;
56043;SDS011;41912;51.022;3.664;2024-01-11T07:22:36;43.03;;;18.80;;
56043;SDS011;41912;51.022;3.664;2024-01-11T07:25:02;44.20;;;18.58;;
56043;SDS011;41912;51.022;3.664;2024-01-11T07:27:29;48.08;;;20.40;;
56043;SDS011;41912;51.022;3.664;2024-01-11T07:29:54;41.55;;;18.08;;
56043;SDS011;41912;51.022;3.664;2024-01-11T07:32:20;41.38;;;19.25;;
56043;SDS011;41912;51.022;3.664;2024-01-11T07:34:46;46.33;;;18.05;;
56043;SDS011;41912;51.022;3.664;2024-01-11T07:37:11;44.55;;;18.63;;
56043;SDS011;41912;51.022;3.664;2024-01-11T07:39:37;39.17;;;17.75;;
56043;SDS011;41912;51.022;3.664;2024-01-11T07:42:02;46.53;;;20.63;;
56043;SDS011;41912;51.022;3.664;2024-01-11T07:44:28;42.30;;;17.02;;
56043;SDS011;41912;51.022;3.664;2024-01-11T07:46:54;44.72;;;18.30;;
56043;SDS011;41912;51.022;3.664;2024-01-11T07:49:20;40.92;;;17.55;;
56043;SDS011;41912;51.022;3.664;2024-01-11T07:51:45;41.70;;;18.88;;
56043;SDS011;41912;51.022;3.664;2024-01-11T07:54:11;47.78;;;18.23;;
56043;SDS011;41912;51.022;3.664;2024-01-11T07:56:37;46.78;;;20.52;;
56043;SDS011;41912;51.022;3.664;2024-01-11T07:59:02;42.90;;;20.23;;
56043;SDS011;41912;51.022;3.664;2024-01-11T08:01:29;38.47;;;18.27;;
56043;SDS011;41912;51.022;3.664;2024-01-11T08:03:55;43.08;;;20.05;;
56043;SDS011;41912;51.022;3.664;2024-01-11T08:06:20;42.38;;;18.67;;
56043;SDS011;41912;51.022;3.664;2024-01-11T08:08:46;41.10;;;18.63;;
56043;SDS011;41912;51.022;3.664;2024-01-11T08:11:16;57.65;;;20.45;;
56043;SDS011;41912;51.022;3.664;2024-01-11T08:13:42;51.50;;;20.77;;
56043;SDS011;41912;51.022;3.664;2024-01-11T08:16:08;42.80;;;19.27;;
56043;SDS011;41912;51.022;3.664;2024-01-11T08:18:34;46.03;;;19.17;;
56043;SDS011;41912;51.022;3.664;2024-01-11T08:21:00;39.88;;;18.27;;
56043;SDS011;41912;51.022;3.664;2024-01-11T08:23:26;51.58;;;20.90;;
56043;SDS011;41912;51.022;3.664;2024-01-11T08:25:51;49.58;;;19.67;;
56043;SDS011;41912;51.022;3.664;2024-01-11T08:28:17;44.17;;;19.52;;
56043;SDS011;41912;51.022;3.664;2024-01-11T08:30:46;41.65;;;19.08;;
56043;SDS011;41912;51.022;3.664;2024-01-11T08:33:12;41.00;;;18.30;;
56043;SDS011;41912;51.022;3.664;2024-01-11T08:35:38;43.05;;;19.25;;
56043;SDS011;41912;51.022;3.664;2024-01-11T08:38:05;45.38;;;18.83;;
56043;SDS011;41912;51.022;3.664;2024-01-11T08:40:31;47.13;;;19.40;;
56043;SDS011;41912;51.022;3.664;2024-01-11T08:42:57;47.13;;;19.20;;
56043;SDS011;41912;51.022;3.664;2024-01-11T08:45:23;45.90;;;18.85;;
56043;SDS011;41912;51.022;3.664;2024-01-11T08:47:48;45.20;;;20.27;;
56043;SDS011;41912;51.022;3.664;2024-01-11T08:50:14;44.40;;;19.25;;
56043;SDS011;41912;51.022;3.664;2024-01-11T08:52:41;45.92;;;20.42;;
56043;SDS011;41912;51.022;3.664;2024-01-11T08:55:07;44.55;;;19.52;;
56043;SDS011;41912;51.022;3.664;2024-01-11T08:57:33;42.78;;;20.20;;
56043;SDS011;41912;51.022;3.664;2024-01-11T09:00:01;44.67;;;20.27;;
56043;SDS011;41912;51.022;3.664;2024-01-11T09:02:27;53.45;;;22.35;;
56043;SDS011;41912;51.022;3.664;2024-01-11T09:04:53;46.90;;;21.20;;
56043;SDS011;41912;51.022;3.664;2024-01-11T09:07:18;43.17;;;20.27;;
56043;SDS011;41912;51.022;3.664;2024-01-11T09:09:44;46.25;;;20.63;;
56043;SDS011;41912;51.022;3.664;2024-01-11T09:12:10;44.30;;;21.00;;
56043;SDS011;41912;51.022;3.664;2024-01-11T09:14:36;51.50;;;20.85;;
56043;SDS011;41912;51.022;3.664;2024-01-11T09:17:02;48.78;;;20.63;;
56043;SDS011;41912;51.022;3.664;2024-01-11T09:19:31;54.10;;;21.63;;
56043;SDS011;41912;51.022;3.664;2024-01-11T09:21:59;59.30;;;21.88;;
56043;SDS011;41912;51.022;3.664;2024-01-11T09:24:25;45.25;;;20.00;;
56043;SDS011;41912;51.022;3.664;2024-01-11T09:26:51;51.75;;;21.13;;
56043;SDS011;41912;51.022;3.664;2024-01-11T09:29:16;47.50;;;21.35;;
56043;SDS011;41912;51.022;3.664;2024-01-11T09:31:42;43.08;;;20.92;;
56043;SDS011;41912;51.022;3.664;2024-01-11T09:34:08;49.38;;;21.13;;
56043;SDS011;41912;51.022;3.664;2024-01-11T09:36:33;49.45;;;22.30;;
56043;SDS011;41912;51.022;3.664;2024-01-11T09:38:59;48.70;;;23.23;;
56043;SDS011;41912;51.022;3.664;2024-01-11T09:41:25;55.55;;;24.13;;
56043;SDS011;41912;51.022;3.664;2024-01-11T09:43:52;44.70;;;21.48;;
56043;SDS011;41912;51.022;3.664;2024-01-11T09:46:19;46.90;;;21.45;;
56043;SDS011;41912;51.022;3.664;2024-01-11T09:48:46;49.63;;;21.52;;
56043;SDS011;41912;51.022;3.664;2024-01-11T09:51:13;51.67;;;21.33;;
56043;SDS011;41912;51.022;3.664;2024-01-11T09:53:39;51.47;;;22.65;;
56043;SDS011;41912;51.022;3.664;2024-01-11T09:56:07;47.20;;;20.88;;
56043;SDS011;41912;51.022;3.664;2024-01-11T10:25:59;59.22;;;24.00;;
56043;SDS011;41912;51.022;3.664;2024-01-11T10:28:25;59.35;;;23.45;;
56043;SDS011;41912;51.022;3.664;2024-01-11T10:30:52;64.43;;;25.80;;
56043;SDS011;41912;51.022;3.664;2024-01-11T10:33:21;63.50;;;24.65;;
56043;SDS011;41912;51.022;3.664;2024-01-11T10:38:17;59.03;;;23.17;;
56043;SDS011;41912;51.022;3.664;2024-01-11T10:40:43;58.72;;;25.05;;
56043;SDS011;41912;51.022;3.664;2024-01-11T10:43:09;57.92;;;23.10;;
56043;SDS011;41912;51.022;3.664;2024-01-11T10:45:36;53.05;;;24.58;;
56043;SDS011;41912;51.022;3.664;2024-01-11T10:48:07;50.25;;;22.60;;
56043;SDS011;41912;51.022;3.664;2024-01-11T10:50:42;59.70;;;22.95;;
56043;SDS011;41912;51.022;3.664;2024-01-11T10:56:01;49.03;;;20.02;;
56043;SDS011;41912;51.022;3.664;2024-01-11T10:58:31;53.97;;;22.45;;
56043;SDS011;41912;51.022;3.664;2024-01-11T11:01:03;46.72;;;20.27;;
56043;SDS011;41912;51.022;3.664;2024-01-11T11:03:30;48.13;;;20.83;;
56043;SDS011;41912;51.022;3.664;2024-01-11T11:05:56;50.05;;;21.45;;
56043;SDS011;41912;51.022;3.664;2024-01-11T11:08:24;49.20;;;20.65;;
56043;SDS011;41912;51.022;3.664;2024-01-11T11:10:59;49.70;;;20.83;;
56043;SDS011;41912;51.022;3.664;2024-01-11T11:13:28;52.45;;;20.23;;
56043;SDS011;41912;51.022;3.664;2024-01-11T11:15:54;55.25;;;21.98;;
56043;SDS011;41912;51.022;3.664;2024-01-11T11:18:22;46.58;;;22.52;;
56043;SDS011;41912;51.022;3.664;2024-01-11T11:23:18;50.05;;;19.83;;
56043;SDS011;41912;51.022;3.664;2024-01-11T11:28:19;49.10;;;21.63;;
56043;SDS011;41912;51.022;3.664;2024-01-11T11:30:47;50.50;;;21.73;;
56043;SDS011;41912;51.022;3.664;2024-01-11T11:33:21;46.28;;;19.65;;
56043;SDS011;41912;51.022;3.664;2024-01-11T11:35:51;46.95;;;18.77;;
56043;SDS011;41912;51.022;3.664;2024-01-11T11:38:20;47.65;;;19.88;;
56043;SDS011;41912;51.022;3.664;2024-01-11T11:40:47;41.33;;;18.48;;
56043;SDS011;41912;51.022;3.664;2024-01-11T11:43:15;44.35;;;18.63;;
56043;SDS011;41912;51.022;3.664;2024-01-11T11:45:42;49.45;;;20.67;;
56043;SDS011;41912;51.022;3.664;2024-01-11T11:53:38;44.77;;;18.83;;
56043;SDS011;41912;51.022;3.664;2024-01-11T11:56:05;45.67;;;20.15;;
56043;SDS011;41912;51.022;3.664;2024-01-11T11:58:32;42.33;;;17.83;;
56043;SDS011;41912;51.022;3.664;2024-01-11T12:00:59;44.90;;;19.00;;
56043;SDS011;41912;51.022;3.664;2024-01-11T12:03:32;43.70;;;18.27;;
56043;SDS011;41912;51.022;3.664;2024-01-11T12:06:01;48.42;;;19.15;;
56043;SDS011;41912;51.022;3.664;2024-01-11T12:08:26;40.85;;;17.65;;
56043;SDS011;41912;51.022;3.664;2024-01-11T12:10:52;42.70;;;17.58;;
56043;SDS011;41912;51.022;3.664;2024-01-11T12:13:18;44.03;;;18.77;;
56043;SDS011;41912;51.022;3.664;2024-01-11T12:15:44;48.38;;;19.42;;
56043;SDS011;41912;51.022;3.664;2024-01-11T12:18:10;41.70;;;18.23;;
56043;SDS011;41912;51.022;3.664;2024-01-11T12:20:35;39.17;;;17.67;;
56043;SDS011;41912;51.022;3.664;2024-01-11T12:23:01;39.17;;;17.77;;
56043;SDS011;41912;51.022;3.664;2024-01-11T12:25:28;47.33;;;18.25;;
56043;SDS011;41912;51.022;3.664;2024-01-11T12:27:54;42.03;;;18.70;;
56043;SDS011;41912;51.022;3.664;2024-01-11T12:30:23;46.60;;;20.35;;
56043;SDS011;41912;51.022;3.664;2024-01-11T12:32:50;39.22;;;16.83;;
56043;SDS011;41912;51.022;3.664;2024-01-11T12:35:17;41.03;;;18.80;;
56043;SDS011;41912;51.022;3.664;2024-01-11T12:37:58;42.35;;;19.42;;
56043;SDS011;41912;51.022;3.664;2024-01-11T12:40:24;39.25;;;17.60;;
56043;SDS011;41912;51.022;3.664;2024-01-11T12:42:52;39.70;;;17.33;;
56043;SDS011;41912;51.022;3.664;2024-01-11T12:45:18;39.03;;;16.95;;
56043;SDS011;41912;51.022;3.664;2024-01-11T12:47:44;36.90;;;16.90;;
56043;SDS011;41912;51.022;3.664;2024-01-11T12:50:13;37.60;;;17.33;;
56043;SDS011;41912;51.022;3.664;2024-01-11T12:52:39;37.92;;;16.80;;
56043;SDS011;41912;51.022;3.664;2024-01-11T12:55:07;40.53;;;16.73;;
56043;SDS011;41912;51.022;3.664;2024-01-11T12:57:42;41.15;;;17.83;;
56043;SDS011;41912;51.022;3.664;2024-01-11T13:00:12;39.15;;;18.05;;
56043;SDS011;41912;51.022;3.664;2024-01-11T13:02:38;47.60;;;18.92;;
56043;SDS011;41912;51.022;3.664;2024-01-11T13:05:05;47.78;;;19.27;;
56043;SDS011;41912;51.022;3.664;2024-01-11T13:07:32;37.25;;;17.70;;
56043;SDS011;41912;51.022;3.664;2024-01-11T13:09:59;35.60;;;17.15;;
56043;SDS011;41912;51.022;3.664;2024-01-11T13:12:24;38.35;;;17.70;;
56043;SDS011;41912;51.022;3.664;2024-01-11T13:14:50;35.65;;;16.05;;
56043;SDS011;41912;51.022;3.664;2024-01-11T13:17:17;39.45;;;17.33;;
56043;SDS011;41912;51.022;3.664;2024-01-11T13:19:43;35.22;;;13.85;;
56043;SDS011;41912;51.022;3.664;2024-01-11T13:22:09;32.97;;;14.02;;
56043;SDS011;41912;51.022;3.664;2024-01-11T13:24:35;29.48;;;12.82;;
56043;SDS011;41912;51.022;3.664;2024-01-11T13:27:01;31.88;;;13.57;;
56043;SDS011;41912;51.022;3.664;2024-01-11T13:29:27;28.98;;;12.60;;
56043;SDS011;41912;51.022;3.664;2024-01-11T13:31:52;33.28;;;13.70;;
56043;SDS011;41912;51.022;3.664;2024-01-11T13:34:18;27.00;;;13.02;;
56043;SDS011;41912;51.022;3.664;2024-01-11T13:36:44;29.40;;;12.77;;
56043;SDS011;41912;51.022;3.664;2024-01-11T13:39:10;30.63;;;13.75;;
56043;SDS011;41912;51.022;3.664;2024-01-11T13:41:36;34.17;;;14.02;;
56043;SDS011;41912;51.022;3.664;2024-01-11T13:44:02;28.35;;;12.70;;
56043;SDS011;41912;51.022;3.664;2024-01-11T13:46:30;30.15;;;13.48;;
56043;SDS011;41912;51.022;3.664;2024-01-11T13:48:56;28.80;;;13.02;;
56043;SDS011;41912;51.022;3.664;2024-01-11T13:51:22;31.08;;;12.50;;
56043;SDS011;41912;51.022;3.664;2024-01-11T13:53:48;32.30;;;13.13;;
56043;SDS011;41912;51.022;3.664;2024-01-11T13:56:14;31.60;;;14.45;;
56043;SDS011;41912;51.022;3.664;2024-01-11T13:58:39;28.58;;;13.48;;
56043;SDS011;41912;51.022;3.664;2024-01-11T14:03:52;31.05;;;13.98;;
56043;SDS011;41912;51.022;3.664;2024-01-11T14:06:17;26.17;;;13.23;;
56043;SDS011;41912;51.022;3.664;2024-01-11T14:08:43;30.33;;;14.48;;
56043;SDS011;41912;51.022;3.664;2024-01-11T14:11:09;28.95;;;13.68;;
56043;SDS011;41912;51.022;3.664;2024-01-11T14:13:34;30.00;;;13.90;;
56043;SDS011;41912;51.022;3.664;2024-01-11T14:16:00;32.03;;;15.80;;
56043;SDS011;41912;51.022;3.664;2024-01-11T14:18:25;34.95;;;15.50;;
56043;SDS011;41912;51.022;3.664;2024-01-11T14:20:51;32.03;;;15.43;;
56043;SDS011;41912;51.022;3.664;2024-01-11T14:23:17;34.83;;;15.60;;
56043;SDS011;41912;51.022;3.664;2024-01-11T14:25:43;32.28;;;15.07;;
56043;SDS011;41912;51.022;3.664;2024-01-11T14:28:09;32.90;;;15.10;;
56043;SDS011;41912;51.022;3.664;2024-01-11T14:30:34;30.98;;;15.70;;
56043;SDS011;41912;51.022;3.664;2024-01-11T14:33:00;35.75;;;15.85;;
56043;SDS011;41912;51.022;3.664;2024-01-11T14:35:25;37.25;;;17.25;;
56043;SDS011;41912;51.022;3.664;2024-01-11T14:37:51;35.83;;;16.75;;
56043;SDS011;41912;51.022;3.664;2024-01-11T14:40:17;32.35;;;16.55;;
56043;SDS011;41912;51.022;3.664;2024-01-11T14:42:43;34.25;;;16.83;;
56043;SDS011;41912;51.022;3.664;2024-01-11T14:45:09;36.72;;;16.77;;
56043;SDS011;41912;51.022;3.664;2024-01-11T14:47:34;32.95;;;15.32;;
56043;SDS011;41912;51.022;3.664;2024-01-11T14:50:00;32.15;;;15.23;;
56043;SDS011;41912;51.022;3.664;2024-01-11T14:52:28;33.53;;;15.88;;
56043;SDS011;41912;51.022;3.664;2024-01-11T14:54:54;35.60;;;15.32;;
56043;SDS011;41912;51.022;3.664;2024-01-11T14:57:20;34.25;;;15.43;;
56043;SDS011;41912;51.022;3.664;2024-01-11T14:59:46;31.45;;;15.15;;
56043;SDS011;41912;51.022;3.664;2024-01-11T15:02:11;32.22;;;14.45;;
56043;SDS011;41912;51.022;3.664;2024-01-11T15:04:37;28.58;;;14.02;;
56043;SDS011;41912;51.022;3.664;2024-01-11T15:07:03;33.38;;;14.40;;
56043;SDS011;41912;51.022;3.664;2024-01-11T15:09:29;32.50;;;15.30;;
56043;SDS011;41912;51.022;3.664;2024-01-11T15:11:55;28.50;;;14.38;;
56043;SDS011;41912;51.022;3.664;2024-01-11T15:14:21;29.38;;;14.25;;
56043;SDS011;41912;51.022;3.664;2024-01-11T15:16:47;28.30;;;13.90;;
56043;SDS011;41912;51.022;3.664;2024-01-11T15:19:13;29.35;;;12.77;;
56043;SDS011;41912;51.022;3.664;2024-01-11T15:21:39;28.80;;;11.98;;
56043;SDS011;41912;51.022;3.664;2024-01-11T15:24:11;25.05;;;12.15;;